Time,TemperatureF,DewpointF,PressureIn,WindDirection,WindDirectionDegrees,WindSpeedMPH,WindSpeedGustMPH,Humidity,HourlyPrecipIn,Conditions,Clouds,dailyrainin,SoftwareType,DateUTC
2013-07-23 00:00:00,72.6,72.0,29.76,ENE,59,0.0,0.0,98,0.06,,,0.00,Wunderground v.1.15,2013-07-23 04:00:00,
2013-07-23 00:05:00,72.6,72.0,29.76,ENE,59,0.0,0.0,98,0.05,,,0.01,Wunderground v.1.15,2013-07-23 04:05:00,
2013-07-23 00:10:00,72.6,72.0,29.76,ENE,59,0.0,0.0,98,0.05,,,0.01,Wunderground v.1.15,2013-07-23 04:10:00,
2013-07-23 00:15:00,72.6,72.0,29.76,ENE,59,0.0,0.0,98,0.07,,,0.02,Wunderground v.1.15,2013-07-23 04:15:00,
2013-07-23 00:19:00,72.6,72.0,29.76,ENE,59,0.0,0.0,98,0.06,,,0.02,Wunderground v.1.15,2013-07-23 04:19:00,
2013-07-23 00:24:00,72.6,72.0,29.76,ENE,59,0.0,0.0,98,0.05,,,0.03,Wunderground v.1.15,2013-07-23 04:24:00,
2013-07-23 00:30:00,72.6,72.0,29.76,ENE,59,0.0,0.0,98,0.09,,,0.03,Wunderground v.1.15,2013-07-23 04:30:00,
2013-07-23 00:40:00,72.6,72.0,29.75,ENE,59,0.0,0.0,98,0.14,,,0.06,Wunderground v.1.15,2013-07-23 04:40:00,
2013-07-23 00:45:00,72.6,72.0,29.75,ENE,59,0.0,0.0,98,0.19,,,0.07,Wunderground v.1.15,2013-07-23 04:45:00,
2013-07-23 00:55:00,72.5,71.9,29.75,ENE,59,0.0,0.0,98,0.19,,,0.10,Wunderground v.1.15,2013-07-23 04:55:00,
2013-07-23 01:00:00,72.5,71.9,29.75,ENE,59,0.0,0.0,98,0.15,,,0.12,Wunderground v.1.15,2013-07-23 05:00:00,
2013-07-23 01:05:00,72.5,71.9,29.75,ENE,59,0.0,0.0,98,0.12,,,0.12,Wunderground v.1.15,2013-07-23 05:05:00,
2013-07-23 01:10:00,72.5,71.9,29.74,ENE,59,0.0,0.0,98,0.15,,,0.14,Wunderground v.1.15,2013-07-23 05:10:00,
2013-07-23 01:15:00,72.6,72.0,29.74,ENE,59,0.0,0.0,98,0.22,,,0.15,Wunderground v.1.15,2013-07-23 05:15:00,
2013-07-23 01:25:00,72.6,72.0,29.74,ENE,59,0.0,0.0,98,0.18,,,0.18,Wunderground v.1.15,2013-07-23 05:25:00,
2013-07-23 01:30:00,72.6,72.0,29.73,ENE,59,0.0,0.0,98,0.17,,,0.20,Wunderground v.1.15,2013-07-23 05:30:00,
2013-07-23 01:40:00,72.6,72.0,29.73,ENE,59,0.0,0.0,98,0.16,,,0.22,Wunderground v.1.15,2013-07-23 05:40:00,
2013-07-23 01:45:00,72.5,71.9,29.73,ENE,59,0.0,0.0,98,0.19,,,0.24,Wunderground v.1.15,2013-07-23 05:45:00,
2013-07-23 01:55:00,72.5,71.9,29.72,ENE,59,0.0,0.0,98,0.27,,,0.29,Wunderground v.1.15,2013-07-23 05:55:00,
2013-07-23 02:00:00,72.5,71.9,29.73,ENE,59,0.0,0.0,98,0.17,,,0.30,Wunderground v.1.15,2013-07-23 06:00:00,
2013-07-23 02:10:00,72.5,71.9,29.72,ENE,59,0.0,0.0,98,0.25,,,0.34,Wunderground v.1.15,2013-07-23 06:10:00,
2013-07-23 02:15:00,72.5,71.9,29.71,ENE,59,0.0,0.0,98,0.18,,,0.35,Wunderground v.1.15,2013-07-23 06:15:00,
2013-07-23 02:25:00,72.5,71.9,29.70,ENE,59,0.0,0.0,98,0.13,,,0.38,Wunderground v.1.15,2013-07-23 06:25:00,
2013-07-23 02:30:00,72.5,71.9,29.70,ENE,59,0.0,0.0,98,0.25,,,0.40,Wunderground v.1.15,2013-07-23 06:30:00,
2013-07-23 02:39:00,72.4,71.8,29.69,ENE,59,0.0,0.0,98,0.28,,,0.44,Wunderground v.1.15,2013-07-23 06:39:00,
2013-07-23 02:45:00,72.4,71.8,29.69,ENE,59,0.0,0.0,98,0.20,,,0.46,Wunderground v.1.15,2013-07-23 06:45:00,
2013-07-23 02:54:00,72.2,71.6,29.68,ENE,59,0.0,0.0,98,0.10,,,0.47,Wunderground v.1.15,2013-07-23 06:54:00,
2013-07-23 03:00:00,72.2,71.6,29.68,ENE,59,0.0,0.0,98,0.10,,,0.48,Wunderground v.1.15,2013-07-23 07:00:00,
2013-07-23 03:10:00,72.2,71.6,29.67,ENE,59,0.0,0.0,98,0.04,,,0.48,Wunderground v.1.15,2013-07-23 07:10:00,
2013-07-23 03:15:00,72.2,71.6,29.67,ENE,59,0.0,0.0,98,0.00,,,0.48,Wunderground v.1.15,2013-07-23 07:15:00,
2013-07-23 03:25:00,72.1,71.5,29.66,ENE,59,0.0,0.0,98,0.00,,,0.48,Wunderground v.1.15,2013-07-23 07:25:00,
2013-07-23 03:30:00,72.0,71.4,29.67,ENE,59,0.0,0.0,98,0.00,,,0.48,Wunderground v.1.15,2013-07-23 07:30:00,
2013-07-23 03:40:00,71.8,71.2,29.66,ENE,59,0.0,0.0,98,0.00,,,0.49,Wunderground v.1.15,2013-07-23 07:40:00,
2013-07-23 03:45:00,71.8,71.2,29.66,ENE,59,0.0,0.0,98,0.00,,,0.49,Wunderground v.1.15,2013-07-23 07:45:00,
2013-07-23 03:55:00,71.7,71.1,29.66,ENE,59,0.0,0.0,98,0.00,,,0.49,Wunderground v.1.15,2013-07-23 07:55:00,
2013-07-23 04:00:00,71.7,71.1,29.66,ENE,59,0.0,0.0,98,0.00,,,0.49,Wunderground v.1.15,2013-07-23 08:00:00,
2013-07-23 04:10:00,71.6,71.0,29.66,ENE,59,0.0,0.0,98,0.00,,,0.49,Wunderground v.1.15,2013-07-23 08:10:00,
2013-07-23 04:15:00,71.6,71.0,29.66,ENE,59,0.0,0.0,98,0.00,,,0.49,Wunderground v.1.15,2013-07-23 08:15:00,
2013-07-23 04:24:00,71.6,71.0,29.66,ENE,59,0.0,0.0,98,0.00,,,0.49,Wunderground v.1.15,2013-07-23 08:24:00,
2013-07-23 04:30:00,71.6,71.0,29.66,ENE,59,0.0,0.0,98,0.00,,,0.49,Wunderground v.1.15,2013-07-23 08:30:00,
2013-07-23 04:40:00,71.6,71.0,29.66,ENE,59,0.0,0.0,98,0.00,,,0.49,Wunderground v.1.15,2013-07-23 08:40:00,
2013-07-23 04:45:00,71.6,71.0,29.66,ENE,59,0.0,0.0,98,0.00,,,0.49,Wunderground v.1.15,2013-07-23 08:45:00,
2013-07-23 04:55:00,71.6,71.0,29.66,ENE,59,0.0,0.0,98,0.00,,,0.49,Wunderground v.1.15,2013-07-23 08:55:00,
2013-07-23 05:00:00,71.6,71.0,29.66,ENE,59,0.0,0.0,98,0.00,,,0.49,Wunderground v.1.15,2013-07-23 09:00:00,
2013-07-23 05:10:00,71.6,71.0,29.66,ENE,59,0.0,0.0,98,0.00,,,0.49,Wunderground v.1.15,2013-07-23 09:10:00,
2013-07-23 05:15:00,71.6,71.0,29.66,ENE,59,0.0,0.0,98,0.00,,,0.49,Wunderground v.1.15,2013-07-23 09:15:00,
2013-07-23 05:25:00,71.6,71.0,29.66,ENE,59,0.0,0.0,98,0.00,,,0.49,Wunderground v.1.15,2013-07-23 09:25:00,
2013-07-23 05:30:00,71.6,71.0,29.65,ENE,59,0.0,0.0,98,0.00,,,0.49,Wunderground v.1.15,2013-07-23 09:30:00,
2013-07-23 05:40:00,71.7,71.1,29.66,ENE,59,0.0,0.0,98,0.00,,,0.49,Wunderground v.1.15,2013-07-23 09:40:00,
2013-07-23 05:45:00,71.8,71.5,29.66,ENE,59,0.0,0.0,99,0.00,,,0.49,Wunderground v.1.15,2013-07-23 09:45:00,
2013-07-23 05:55:00,71.7,71.1,29.66,ENE,59,0.0,0.0,98,0.00,,,0.49,Wunderground v.1.15,2013-07-23 09:55:00,
2013-07-23 06:00:00,71.6,71.0,29.66,ENE,59,0.0,0.0,98,0.00,,,0.49,Wunderground v.1.15,2013-07-23 10:00:00,
2013-07-23 06:10:00,71.5,70.9,29.65,ENE,59,0.0,0.0,98,0.00,,,0.49,Wunderground v.1.15,2013-07-23 10:10:00,
2013-07-23 06:15:00,71.4,70.8,29.65,ENE,59,0.0,0.0,98,0.00,,,0.49,Wunderground v.1.15,2013-07-23 10:15:00,
2013-07-23 06:25:00,71.4,70.8,29.66,ENE,59,0.0,0.0,98,0.00,,,0.49,Wunderground v.1.15,2013-07-23 10:25:00,
2013-07-23 06:30:00,71.4,70.8,29.66,ENE,59,0.0,0.0,98,0.00,,,0.49,Wunderground v.1.15,2013-07-23 10:30:00,
2013-07-23 06:39:00,71.5,70.9,29.66,ENE,59,0.0,0.0,98,0.00,,,0.49,Wunderground v.1.15,2013-07-23 10:39:00,
2013-07-23 06:45:00,71.5,70.9,29.66,ENE,59,0.0,0.0,98,0.00,,,0.49,Wunderground v.1.15,2013-07-23 10:45:00,
2013-07-23 06:54:00,71.5,70.9,29.66,ENE,59,0.0,0.0,98,0.00,,,0.49,Wunderground v.1.15,2013-07-23 10:54:00,
2013-07-23 07:00:00,71.6,71.0,29.66,ENE,59,0.0,0.0,98,0.00,,,0.49,Wunderground v.1.15,2013-07-23 11:00:00,
2013-07-23 07:10:00,71.5,70.9,29.66,ENE,59,0.0,0.0,98,0.00,,,0.49,Wunderground v.1.15,2013-07-23 11:10:00,
2013-07-23 07:15:00,71.6,71.0,29.66,ENE,59,0.0,0.0,98,0.00,,,0.49,Wunderground v.1.15,2013-07-23 11:15:00,
2013-07-23 07:25:00,71.6,71.0,29.66,ENE,59,0.0,0.0,98,0.00,,,0.49,Wunderground v.1.15,2013-07-23 11:25:00,
2013-07-23 07:30:00,71.6,71.0,29.66,ENE,59,0.0,0.0,98,0.00,,,0.49,Wunderground v.1.15,2013-07-23 11:30:00,
2013-07-23 07:40:00,71.9,71.6,29.66,ENE,59,0.0,0.0,99,0.00,,,0.49,Wunderground v.1.15,2013-07-23 11:40:00,
2013-07-23 07:45:00,72.0,71.7,29.66,ENE,59,0.0,0.0,99,0.00,,,0.49,Wunderground v.1.15,2013-07-23 11:45:00,
2013-07-23 07:54:00,71.9,71.6,29.66,ENE,59,0.0,0.0,99,0.00,,,0.49,Wunderground v.1.15,2013-07-23 11:54:00,
2013-07-23 08:00:00,71.9,71.6,29.66,ENE,59,0.0,0.0,99,0.00,,,0.49,Wunderground v.1.15,2013-07-23 12:00:00,
2013-07-23 08:09:00,72.1,71.8,29.65,ENE,59,0.0,0.0,99,0.00,,,0.49,Wunderground v.1.15,2013-07-23 12:09:00,
2013-07-23 08:15:00,72.1,71.8,29.65,ENE,59,0.0,0.0,99,0.00,,,0.49,Wunderground v.1.15,2013-07-23 12:15:00,
2013-07-23 08:25:00,72.3,72.0,29.65,NE,34,0.0,0.0,99,0.00,,,0.49,Wunderground v.1.15,2013-07-23 12:25:00,
2013-07-23 08:30:00,72.3,71.7,29.65,NNE,29,0.0,0.0,98,0.00,,,0.49,Wunderground v.1.15,2013-07-23 12:30:00,
2013-07-23 08:40:00,72.5,72.2,29.65,NNE,29,0.0,0.0,99,0.00,,,0.49,Wunderground v.1.15,2013-07-23 12:40:00,
2013-07-23 08:45:00,72.7,72.4,29.64,NNE,29,0.0,1.0,99,0.00,,,0.49,Wunderground v.1.15,2013-07-23 12:45:00,
2013-07-23 08:55:00,72.7,72.1,29.64,NW,306,0.0,2.0,98,0.00,,,0.49,Wunderground v.1.15,2013-07-23 12:55:00,
2013-07-23 09:00:00,72.8,72.2,29.64,NW,306,0.0,0.0,98,0.00,,,0.49,Wunderground v.1.15,2013-07-23 13:00:00,
2013-07-23 09:10:00,73.1,72.8,29.64,NW,306,0.0,0.0,99,0.00,,,0.49,Wunderground v.1.15,2013-07-23 13:10:00,
2013-07-23 09:15:00,73.2,72.6,29.64,NW,306,0.0,0.0,98,0.00,,,0.49,Wunderground v.1.15,2013-07-23 13:15:00,
2013-07-23 09:25:00,73.5,72.9,29.64,NW,306,0.0,0.0,98,0.00,,,0.49,Wunderground v.1.15,2013-07-23 13:25:00,
2013-07-23 09:30:00,73.7,73.1,29.64,NW,306,0.0,0.0,98,0.00,,,0.49,Wunderground v.1.15,2013-07-23 13:30:00,
2013-07-23 09:39:00,73.9,73.0,29.64,NW,306,0.0,0.0,97,0.00,,,0.49,Wunderground v.1.15,2013-07-23 13:39:00,
2013-07-23 09:45:00,74.0,72.8,29.64,NW,306,0.0,0.0,96,0.00,,,0.49,Wunderground v.1.15,2013-07-23 13:45:00,
2013-07-23 09:55:00,74.3,73.1,29.63,NW,306,0.0,0.0,96,0.00,,,0.49,Wunderground v.1.15,2013-07-23 13:55:00,
2013-07-23 10:00:00,74.8,73.6,29.63,NW,310,0.0,0.0,96,0.00,,,0.49,Wunderground v.1.15,2013-07-23 14:00:00,
2013-07-23 10:10:00,75.7,73.5,29.63,SSW,196,0.0,0.0,93,0.00,,,0.49,Wunderground v.1.15,2013-07-23 14:10:00,
2013-07-23 10:15:00,76.1,73.9,29.64,East,88,0.0,0.0,93,0.00,,,0.49,Wunderground v.1.15,2013-07-23 14:15:00,
2013-07-23 10:25:00,76.7,74.2,29.63,South,171,0.0,0.0,92,0.00,,,0.49,Wunderground v.1.15,2013-07-23 14:25:00,
2013-07-23 10:30:00,77.5,74.7,29.63,South,171,0.0,0.0,91,0.00,,,0.49,Wunderground v.1.15,2013-07-23 14:30:00,
2013-07-23 10:40:00,77.9,74.1,29.63,NE,48,0.0,0.0,88,0.00,,,0.49,Wunderground v.1.15,2013-07-23 14:40:00,
2013-07-23 10:45:00,78.0,74.2,29.63,South,169,1.0,1.0,88,0.00,,,0.49,Wunderground v.1.15,2013-07-23 14:45:00,
2013-07-23 10:55:00,79.2,75.0,29.63,SSE,163,0.0,1.0,87,0.00,,,0.49,Wunderground v.1.15,2013-07-23 14:55:00,
2013-07-23 11:00:00,79.8,74.9,29.63,South,178,0.0,0.0,85,0.00,,,0.49,Wunderground v.1.15,2013-07-23 15:00:00,
2013-07-23 11:10:00,80.9,74.9,29.62,East,80,0.0,0.0,82,0.00,,,0.49,Wunderground v.1.15,2013-07-23 15:10:00,
2013-07-23 11:15:00,81.4,75.4,29.62,East,80,0.0,0.0,82,0.00,,,0.49,Wunderground v.1.15,2013-07-23 15:15:00,
2013-07-23 11:25:00,82.0,75.2,29.62,North,5,0.0,1.0,80,0.00,,,0.49,Wunderground v.1.15,2013-07-23 15:25:00,
2013-07-23 11:30:00,82.0,75.2,29.62,North,360,0.0,0.0,80,0.00,,,0.49,Wunderground v.1.15,2013-07-23 15:30:00,
2013-07-23 11:40:00,82.4,74.8,29.62,West,263,0.0,0.0,78,0.00,,,0.49,Wunderground v.1.15,2013-07-23 15:40:00,
2013-07-23 11:45:00,82.7,75.1,29.61,West,281,0.0,1.0,78,0.00,,,0.49,Wunderground v.1.15,2013-07-23 15:45:00,
2013-07-23 11:55:00,83.7,75.3,29.61,West,259,1.0,2.0,76,0.00,,,0.49,Wunderground v.1.15,2013-07-23 15:55:00,
2013-07-23 12:00:00,84.0,74.4,29.61,West,263,1.0,1.0,73,0.00,,,0.49,Wunderground v.1.15,2013-07-23 16:00:00,
2013-07-23 12:10:00,83.9,73.9,29.61,West,263,0.0,0.0,72,0.00,,,0.49,Wunderground v.1.15,2013-07-23 16:10:00,
2013-07-23 12:15:00,83.1,73.5,29.61,West,263,0.0,0.0,73,0.00,,,0.49,Wunderground v.1.15,2013-07-23 16:15:00,
2013-07-23 12:25:00,83.8,73.8,29.61,West,269,1.0,1.0,72,0.00,,,0.49,Wunderground v.1.15,2013-07-23 16:25:00,
2013-07-23 12:30:00,84.2,73.8,29.61,SW,223,0.0,0.0,71,0.00,,,0.49,Wunderground v.1.15,2013-07-23 16:30:00,
2013-07-23 12:40:00,85.6,73.4,29.61,NW,306,0.0,0.0,67,0.00,,,0.49,Wunderground v.1.15,2013-07-23 16:40:00,
2013-07-23 12:45:00,85.9,74.5,29.61,NNW,333,1.0,1.0,69,0.00,,,0.49,Wunderground v.1.15,2013-07-23 16:45:00,
2013-07-23 12:55:00,86.4,74.6,29.60,North,360,1.0,1.0,68,0.00,,,0.49,Wunderground v.1.15,2013-07-23 16:55:00,
2013-07-23 13:00:00,86.5,74.7,29.60,NE,35,1.0,1.0,68,0.00,,,0.49,Wunderground v.1.15,2013-07-23 17:00:00,
2013-07-23 13:10:00,87.6,74.8,29.60,NE,40,0.0,2.0,66,0.00,,,0.49,Wunderground v.1.15,2013-07-23 17:10:00,
2013-07-23 13:15:00,87.7,74.0,29.59,West,275,1.0,2.0,64,0.00,,,0.49,Wunderground v.1.15,2013-07-23 17:15:00,
2013-07-23 13:25:00,86.9,74.2,29.59,SSW,202,1.0,1.0,66,0.00,,,0.49,Wunderground v.1.15,2013-07-23 17:25:00,
2013-07-23 13:30:00,86.3,74.0,29.59,SW,215,0.0,0.0,67,0.00,,,0.49,Wunderground v.1.15,2013-07-23 17:30:00,
2013-07-23 13:40:00,85.9,74.1,29.59,WSW,253,1.0,3.0,68,0.00,,,0.49,Wunderground v.1.15,2013-07-23 17:40:00,
2013-07-23 13:45:00,84.2,71.6,29.60,WSW,250,2.0,3.0,66,0.00,,,0.49,Wunderground v.1.15,2013-07-23 17:45:00,
2013-07-23 13:55:00,80.2,71.9,29.60,NNE,14,1.0,2.0,76,0.00,,,0.50,Wunderground v.1.15,2013-07-23 17:55:00,
2013-07-23 14:00:00,78.0,70.6,29.60,WSW,238,1.0,1.0,78,0.07,,,0.52,Wunderground v.1.15,2013-07-23 18:00:00,
2013-07-23 14:10:00,75.8,72.7,29.59,NNE,23,1.0,1.0,90,0.09,,,0.60,Wunderground v.1.15,2013-07-23 18:10:00,
2013-07-23 14:20:00,76.5,73.7,29.59,NNW,342,1.0,1.0,91,0.04,,,0.60,Wunderground v.1.15,2013-07-23 18:20:00,
2013-07-23 14:30:00,77.5,74.0,29.59,NNW,342,0.0,0.0,89,0.00,,,0.60,Wunderground v.1.15,2013-07-23 18:30:00,
2013-07-23 14:40:00,79.1,74.9,29.58,NNW,342,0.0,0.0,87,0.00,,,0.60,Wunderground v.1.15,2013-07-23 18:40:00,
2013-07-23 15:00:00,78.3,74.5,29.60,West,266,1.0,1.0,88,0.47,,,0.64,Wunderground v.1.15,2013-07-23 19:00:00,
2013-07-23 15:10:00,77.1,74.6,29.59,East,88,1.0,1.0,92,0.09,,,0.67,Wunderground v.1.15,2013-07-23 19:10:00,
2013-07-23 15:20:00,77.1,74.3,29.59,East,88,0.0,0.0,91,0.04,,,0.67,Wunderground v.1.15,2013-07-23 19:20:00,
2013-07-23 15:30:00,77.0,74.2,29.58,East,88,0.0,0.0,91,0.00,,,0.67,Wunderground v.1.15,2013-07-23 19:30:00,
2013-07-23 15:40:00,77.6,75.4,29.58,East,88,0.0,0.0,93,0.00,,,0.67,Wunderground v.1.15,2013-07-23 19:40:00,
2013-07-23 15:45:00,78.1,75.6,29.58,East,88,0.0,0.0,92,0.00,,,0.67,Wunderground v.1.15,2013-07-23 19:45:00,
2013-07-23 15:55:00,78.8,75.9,29.57,East,88,0.0,0.0,91,0.00,,,0.67,Wunderground v.1.15,2013-07-23 19:55:00,
2013-07-23 16:00:00,79.1,75.6,29.57,East,88,0.0,0.0,89,0.00,,,0.67,Wunderground v.1.15,2013-07-23 20:00:00,
2013-07-23 16:10:00,79.5,76.3,29.57,East,88,0.0,0.0,90,0.00,,,0.67,Wunderground v.1.15,2013-07-23 20:10:00,
2013-07-23 16:15:00,79.6,76.1,29.56,ENE,63,0.0,0.0,89,0.00,,,0.67,Wunderground v.1.15,2013-07-23 20:15:00,
2013-07-23 16:25:00,79.9,76.0,29.57,NNW,342,0.0,3.0,88,0.00,,,0.67,Wunderground v.1.15,2013-07-23 20:25:00,
2013-07-23 16:30:00,80.2,76.7,29.56,NNW,336,0.0,1.0,89,0.00,,,0.67,Wunderground v.1.15,2013-07-23 20:30:00,
2013-07-23 16:50:00,80.2,74.9,29.56,SSW,192,1.0,1.0,84,0.00,,,0.67,Wunderground v.1.15,2013-07-23 20:50:00,
2013-07-23 16:55:00,80.3,75.0,29.56,SSE,157,1.0,1.0,84,0.00,,,0.67,Wunderground v.1.15,2013-07-23 20:55:00,
2013-07-23 17:00:00,80.5,75.2,29.56,NE,50,0.0,0.0,84,0.00,,,0.67,Wunderground v.1.15,2013-07-23 21:00:00,
2013-07-23 17:10:00,80.3,75.0,29.56,NW,304,0.0,0.0,84,0.00,,,0.67,Wunderground v.1.15,2013-07-23 21:10:00,
2013-07-23 17:15:00,80.1,75.2,29.56,NW,304,0.0,0.0,85,0.00,,,0.67,Wunderground v.1.15,2013-07-23 21:15:00,
2013-07-23 17:30:00,80.3,73.9,29.56,SW,234,0.0,2.0,81,0.00,,,0.67,Wunderground v.1.15,2013-07-23 21:30:00,
2013-07-23 17:40:00,81.0,73.1,29.55,West,265,1.0,1.0,77,0.00,,,0.67,Wunderground v.1.15,2013-07-23 21:40:00,
2013-07-23 17:50:00,81.6,73.3,29.56,West,273,1.0,1.0,76,0.00,,,0.67,Wunderground v.1.15,2013-07-23 21:50:00,
2013-07-23 18:00:00,82.4,72.0,29.56,NNW,330,1.0,1.0,71,0.00,,,0.67,Wunderground v.1.15,2013-07-23 22:00:00,
2013-07-23 18:20:00,82.7,72.3,29.56,West,280,0.0,0.0,71,0.00,,,0.67,Wunderground v.1.15,2013-07-23 22:20:00,
2013-07-23 18:35:00,81.3,71.8,29.57,West,280,0.0,0.0,73,0.00,,,0.67,Wunderground v.1.15,2013-07-23 22:35:00,
2013-07-23 18:40:00,80.8,71.3,29.57,West,280,0.0,0.0,73,0.00,,,0.67,Wunderground v.1.15,2013-07-23 22:40:00,
2013-07-23 18:45:00,80.4,71.3,29.57,West,280,0.0,0.0,74,0.00,,,0.67,Wunderground v.1.15,2013-07-23 22:45:00,
2013-07-23 18:55:00,79.9,71.3,29.57,West,280,0.0,0.0,75,0.00,,,0.67,Wunderground v.1.15,2013-07-23 22:55:00,
2013-07-23 19:05:00,79.4,71.6,29.58,West,280,0.0,0.0,77,0.00,,,0.67,Wunderground v.1.15,2013-07-23 23:05:00,
2013-07-23 19:10:00,79.3,71.5,29.57,West,280,0.0,0.0,77,0.00,,,0.67,Wunderground v.1.15,2013-07-23 23:10:00,
2013-07-23 19:15:00,79.4,71.6,29.57,West,280,0.0,0.0,77,0.00,,,0.67,Wunderground v.1.15,2013-07-23 23:15:00,
2013-07-23 19:30:00,79.6,72.1,29.57,West,280,0.0,0.0,78,0.00,,,0.67,Wunderground v.1.15,2013-07-23 23:30:00,
2013-07-23 19:40:00,79.2,72.1,29.57,West,280,0.0,0.0,79,0.00,,,0.67,Wunderground v.1.15,2013-07-23 23:40:00,
2013-07-23 19:45:00,79.0,72.3,29.58,West,280,0.0,0.0,80,0.00,,,0.67,Wunderground v.1.15,2013-07-23 23:45:00,
2013-07-23 20:00:00,78.7,72.4,29.58,West,280,0.0,0.0,81,0.00,,,0.67,Wunderground v.1.15,2013-07-24 00:00:00,
2013-07-23 20:15:00,78.2,72.6,29.58,West,280,0.0,0.0,83,0.00,,,0.67,Wunderground v.1.15,2013-07-24 00:15:00,
2013-07-23 20:25:00,77.5,73.0,29.59,West,280,0.0,0.0,86,0.00,,,0.67,Wunderground v.1.15,2013-07-24 00:25:00,
2013-07-23 20:30:00,77.2,72.7,29.59,West,280,0.0,0.0,86,0.00,,,0.67,Wunderground v.1.15,2013-07-24 00:30:00,
2013-07-23 20:40:00,76.8,73.0,29.59,West,280,0.0,0.0,88,0.00,,,0.67,Wunderground v.1.15,2013-07-24 00:40:00,
2013-07-23 20:50:00,76.2,73.1,29.59,West,280,0.0,0.0,90,0.00,,,0.67,Wunderground v.1.15,2013-07-24 00:50:00,
2013-07-23 20:55:00,75.9,72.8,29.60,West,280,0.0,0.0,90,0.00,,,0.67,Wunderground v.1.15,2013-07-24 00:55:00,
2013-07-23 21:00:00,75.7,72.6,29.60,West,280,0.0,0.0,90,0.00,,,0.67,Wunderground v.1.15,2013-07-24 01:00:00,
2013-07-23 21:10:00,75.3,72.5,29.60,West,280,0.0,0.0,91,0.00,,,0.67,Wunderground v.1.15,2013-07-24 01:10:00,
2013-07-23 21:15:00,75.1,72.3,29.61,West,280,0.0,0.0,91,0.00,,,0.67,Wunderground v.1.15,2013-07-24 01:15:00,
2013-07-23 21:25:00,74.6,72.1,29.61,West,280,0.0,0.0,92,0.00,,,0.67,Wunderground v.1.15,2013-07-24 01:25:00,
2013-07-23 21:30:00,74.5,72.0,29.61,West,280,0.0,0.0,92,0.00,,,0.67,Wunderground v.1.15,2013-07-24 01:30:00,
2013-07-23 21:50:00,74.1,71.9,29.61,West,280,0.0,0.0,93,0.00,,,0.67,Wunderground v.1.15,2013-07-24 01:50:00,
2013-07-23 22:00:00,73.8,71.6,29.62,West,280,0.0,0.0,93,0.00,,,0.67,Wunderground v.1.15,2013-07-24 02:00:00,
2013-07-23 22:10:00,73.5,71.7,29.61,West,280,0.0,0.0,94,0.00,,,0.67,Wunderground v.1.15,2013-07-24 02:10:00,
2013-07-23 22:15:00,73.3,71.5,29.60,West,280,0.0,0.0,94,0.00,,,0.67,Wunderground v.1.15,2013-07-24 02:15:00,
2013-07-23 22:25:00,73.0,71.2,29.61,West,280,0.0,0.0,94,0.00,,,0.67,Wunderground v.1.15,2013-07-24 02:25:00,
2013-07-23 22:35:00,72.7,70.9,29.60,West,280,0.0,0.0,94,0.00,,,0.67,Wunderground v.1.15,2013-07-24 02:35:00,
2013-07-23 22:40:00,72.5,71.0,29.61,West,280,0.0,0.0,95,0.00,,,0.67,Wunderground v.1.15,2013-07-24 02:40:00,
2013-07-23 22:45:00,72.4,70.9,29.61,West,280,0.0,0.0,95,0.00,,,0.67,Wunderground v.1.15,2013-07-24 02:45:00,
2013-07-23 22:55:00,72.2,70.7,29.61,West,280,0.0,0.0,95,0.00,,,0.67,Wunderground v.1.15,2013-07-24 02:55:00,
2013-07-23 23:00:00,72.2,70.7,29.62,West,280,0.0,0.0,95,0.00,,,0.67,Wunderground v.1.15,2013-07-24 03:00:00,
2013-07-23 23:15:00,71.8,70.3,29.62,West,280,0.0,0.0,95,0.00,,,0.67,Wunderground v.1.15,2013-07-24 03:15:00,
2013-07-23 23:25:00,71.5,70.0,29.61,West,280,0.0,0.0,95,0.00,,,0.67,Wunderground v.1.15,2013-07-24 03:25:00,
2013-07-23 23:30:00,71.3,69.8,29.61,West,280,0.0,0.0,95,0.00,,,0.67,Wunderground v.1.15,2013-07-24 03:30:00,
2013-07-23 23:40:00,71.1,69.9,29.62,West,280,0.0,0.0,96,0.00,,,0.67,Wunderground v.1.15,2013-07-24 03:40:00,
2013-07-23 23:45:00,71.1,69.9,29.62,West,280,0.0,0.0,96,0.00,,,0.67,Wunderground v.1.15,2013-07-24 03:45:00,